createdAt,value
2018-06-29T00:00:53.566Z,54.00
2018-06-29T00:03:23.781Z,54.20
2018-06-29T00:05:54.055Z,54.40
2018-06-29T00:08:24.228Z,54.50
2018-06-29T00:10:54.304Z,54.70
2018-06-29T00:13:24.549Z,54.90
2018-06-29T00:15:54.822Z,55.00
2018-06-29T00:18:24.771Z,55.00
2018-06-29T00:20:54.806Z,55.50
2018-06-29T00:23:25.895Z,55.80
2018-06-29T00:25:57.103Z,56.10
2018-06-29T00:28:27.770Z,56.20
2018-06-29T00:30:59.383Z,56.30
2018-06-29T00:33:30.065Z,56.50
2018-06-29T00:36:01.123Z,56.60
2018-06-29T00:40:30.928Z,56.60
2018-06-29T00:43:01.215Z,56.70
2018-06-29T00:45:31.408Z,57.10
2018-06-29T00:48:01.921Z,57.30
2018-06-29T00:50:32.075Z,57.50
2018-06-29T00:53:02.430Z,59.20
2018-06-29T00:55:32.449Z,59.40
2018-06-29T00:58:02.401Z,59.40
2018-06-29T01:00:32.784Z,59.40
2018-06-29T01:03:03.016Z,59.40
2018-06-29T01:05:33.482Z,59.60
2018-06-29T01:08:03.504Z,59.60
2018-06-29T01:10:33.688Z,59.50
2018-06-29T01:13:03.863Z,59.60
2018-06-29T01:15:34.168Z,59.70
2018-06-29T01:18:04.408Z,59.90
2018-06-29T01:20:34.444Z,60.60
2018-06-29T01:23:04.610Z,60.60
2018-06-29T01:25:34.923Z,60.60
2018-06-29T01:28:05.116Z,60.70
2018-06-29T01:30:35.300Z,60.50
2018-06-29T01:33:05.434Z,60.40
2018-06-29T01:35:35.301Z,60.50
2018-06-29T01:38:05.683Z,60.50
2018-06-29T01:40:35.709Z,60.60
2018-06-29T01:43:05.804Z,60.30
2018-06-29T01:45:35.685Z,60.60
2018-06-29T01:48:06.218Z,61.20
2018-06-29T01:50:37.443Z,61.40
2018-06-29T01:53:08.376Z,61.60
2018-06-29T01:55:39.661Z,62.00
2018-06-29T01:58:10.435Z,62.40
2018-06-29T02:00:41.659Z,62.60
2018-06-29T02:05:42.871Z,62.40
2018-06-29T02:08:13.212Z,62.00
2018-06-29T02:10:43.195Z,62.00
2018-06-29T02:13:13.425Z,61.80
2018-06-29T02:15:43.609Z,62.00
2018-06-29T02:18:13.756Z,62.40
2018-06-29T02:20:44.023Z,62.70
2018-06-29T02:23:14.159Z,62.70
2018-06-29T02:25:44.536Z,62.40
2018-06-29T02:28:14.746Z,62.00
2018-06-29T02:30:44.856Z,62.20
2018-06-29T02:33:15.098Z,62.30
2018-06-29T02:35:45.303Z,62.60
2018-06-29T02:38:15.090Z,62.90
2018-06-29T02:40:45.131Z,62.50
2018-06-29T02:43:15.318Z,62.20
2018-06-29T02:45:45.268Z,62.30
2018-06-29T02:48:15.311Z,62.30
2018-06-29T02:50:45.289Z,62.40
2018-06-29T02:53:15.331Z,62.30
2018-06-29T02:55:45.362Z,62.60
2018-06-29T02:58:15.385Z,62.60
2018-06-29T03:00:45.568Z,62.50
2018-06-29T03:03:15.530Z,62.50
2018-06-29T03:05:45.534Z,62.90
2018-06-29T03:08:15.801Z,62.50
2018-06-29T03:10:45.978Z,62.70
2018-06-29T03:13:16.184Z,62.90
2018-06-29T03:15:46.294Z,63.00
2018-06-29T03:18:16.118Z,63.10
2018-06-29T03:20:45.940Z,63.00
2018-06-29T03:23:17.071Z,62.90
2018-06-29T03:25:48.051Z,63.00
2018-06-29T03:30:50.068Z,63.60
2018-06-29T03:33:20.549Z,63.40
2018-06-29T03:35:50.639Z,63.30
2018-06-29T03:38:21.109Z,63.60
2018-06-29T03:43:20.724Z,63.60
2018-06-29T03:45:50.918Z,63.70
2018-06-29T03:48:20.960Z,63.70
2018-06-29T03:50:51.034Z,64.30
2018-06-29T03:53:21.266Z,64.70
2018-06-29T03:55:51.189Z,64.60
2018-06-29T03:58:21.288Z,64.80
2018-06-29T04:00:51.475Z,67.20
2018-06-29T04:03:21.807Z,65.10
2018-06-29T04:05:53.175Z,64.90
2018-06-29T04:08:23.300Z,65.00
2018-06-29T04:10:53.670Z,63.30
2018-06-29T04:13:23.778Z,63.00
2018-06-29T04:15:53.929Z,61.50
2018-06-29T04:18:24.060Z,59.80
2018-06-29T04:20:54.236Z,61.20
2018-06-29T04:23:24.779Z,60.80
2018-06-29T04:25:55.725Z,60.20
2018-06-29T04:28:26.120Z,60.00
2018-06-29T04:30:56.253Z,59.10
2018-06-29T04:33:26.541Z,59.30
2018-06-29T04:35:56.649Z,58.20
2018-06-29T04:38:26.858Z,59.30
2018-06-29T04:40:57.070Z,60.00
2018-06-29T04:43:27.070Z,60.70
2018-06-29T04:45:57.050Z,61.50
2018-06-29T04:48:27.135Z,61.50
2018-06-29T04:50:56.914Z,61.80
2018-06-29T04:53:27.581Z,62.20
2018-06-29T04:55:58.097Z,61.90
2018-06-29T04:58:28.274Z,61.70
2018-06-29T05:00:58.678Z,62.40
2018-06-29T05:03:28.826Z,63.00
2018-06-29T05:05:58.878Z,62.40
2018-06-29T05:08:29.035Z,62.50
2018-06-29T05:10:59.200Z,62.80
2018-06-29T05:13:29.519Z,62.90
2018-06-29T05:15:59.741Z,63.10
2018-06-29T05:18:29.855Z,63.00
2018-06-29T05:21:00.044Z,63.00
2018-06-29T05:23:29.979Z,63.30
2018-06-29T05:26:00.515Z,62.70
2018-06-29T05:28:30.705Z,62.90
2018-06-29T05:31:01.761Z,63.30
2018-06-29T05:33:32.089Z,63.70
2018-06-29T05:36:02.330Z,63.70
2018-06-29T05:38:32.504Z,63.60
2018-06-29T05:41:03.035Z,63.20
2018-06-29T05:43:34.166Z,62.90
2018-06-29T05:46:04.249Z,63.20
2018-06-29T05:48:34.346Z,63.20
2018-06-29T05:51:04.490Z,63.20
2018-06-29T05:53:34.609Z,62.30
2018-06-29T05:56:04.855Z,62.70
2018-06-29T05:58:34.987Z,62.70
2018-06-29T06:03:38.698Z,63.20
2018-06-29T06:06:09.445Z,63.20
2018-06-29T06:08:39.620Z,62.80
2018-06-29T06:11:09.881Z,62.80
2018-06-29T06:13:40.049Z,62.30
2018-06-29T06:16:10.046Z,62.40
2018-06-29T06:18:40.111Z,62.90
2018-06-29T06:21:10.585Z,63.20
2018-06-29T06:23:40.856Z,63.60
2018-06-29T06:26:11.250Z,62.30
2018-06-29T06:28:41.527Z,62.70
2018-06-29T06:40:31.401Z,62.60
2018-06-29T06:43:18.522Z,62.50
2018-06-29T06:45:49.647Z,62.00
2018-06-29T06:50:49.572Z,61.70
2018-06-29T06:53:19.829Z,61.30
2018-06-29T06:55:50.397Z,61.00
2018-06-29T06:58:20.947Z,60.50
2018-06-29T07:00:51.621Z,60.60
2018-06-29T07:03:21.649Z,60.20
2018-06-29T07:05:51.676Z,60.50
2018-06-29T07:08:22.127Z,61.10
2018-06-29T07:10:52.236Z,60.50
2018-06-29T07:13:22.365Z,60.00
2018-06-29T07:15:52.633Z,59.80
2018-06-29T07:18:22.843Z,59.60
2018-06-29T07:20:53.021Z,59.40
2018-06-29T07:23:23.117Z,59.40
2018-06-29T07:25:53.445Z,59.20
2018-06-29T07:28:23.753Z,58.50
2018-06-29T07:30:53.906Z,58.60
2018-06-29T07:33:24.040Z,58.00
2018-06-29T07:38:24.215Z,57.30
2018-06-29T07:40:54.551Z,57.50
2018-06-29T07:43:24.640Z,57.40
2018-06-29T07:45:54.978Z,57.10
2018-06-29T07:48:25.056Z,56.50
2018-06-29T07:50:54.925Z,56.50
2018-06-29T07:53:25.107Z,56.80
2018-06-29T07:55:55.630Z,56.20
2018-06-29T07:58:25.981Z,55.70
2018-06-29T08:01:02.472Z,55.30
2018-06-29T08:03:35.362Z,55.70
2018-06-29T08:06:05.486Z,54.50
2018-06-29T08:08:35.459Z,54.30
2018-06-29T08:11:05.585Z,54.60
2018-06-29T08:13:35.736Z,54.50
2018-06-29T08:16:06.106Z,54.80
2018-06-29T08:18:36.256Z,54.40
2018-06-29T08:21:06.526Z,54.90
2018-06-29T08:23:36.971Z,53.70
2018-06-29T08:26:23.365Z,53.50
2018-06-29T08:28:53.604Z,53.40
2018-06-29T08:31:23.748Z,53.00
2018-06-29T08:33:53.953Z,52.50
2018-06-29T08:36:24.245Z,52.80
2018-06-29T08:38:54.436Z,52.60
2018-06-29T08:41:24.547Z,52.50
2018-06-29T08:43:54.635Z,52.40
2018-06-29T08:46:24.805Z,52.40
2018-06-29T08:48:55.125Z,52.30
2018-06-29T08:51:25.331Z,52.00
2018-06-29T08:53:55.616Z,50.60
2018-06-29T08:56:26.244Z,51.10
2018-06-29T08:58:57.009Z,50.30
2018-06-29T09:01:27.306Z,50.10
2018-06-29T09:03:57.356Z,49.90
2018-06-29T09:06:27.496Z,49.80
2018-06-29T09:08:57.832Z,49.40
2018-06-29T09:11:28.090Z,49.00
2018-06-29T09:13:58.193Z,49.00
2018-06-29T09:16:28.385Z,49.00
2018-06-29T09:18:58.581Z,49.50
2018-06-29T09:21:29.460Z,49.30
2018-06-29T09:24:00.385Z,49.10
2018-06-29T09:26:31.172Z,47.80
2018-06-29T09:29:02.411Z,47.40
2018-06-29T09:31:33.315Z,48.80
2018-06-29T09:40:31.213Z,48.90
2018-06-29T09:43:01.321Z,46.90
2018-06-29T09:45:31.592Z,47.20
2018-06-29T09:48:02.376Z,48.60
2018-06-29T09:50:32.507Z,46.90
2018-06-29T09:53:02.678Z,45.20
2018-06-29T09:55:32.874Z,43.80
2018-06-29T09:58:03.172Z,44.10
2018-06-29T10:00:33.696Z,45.30
2018-06-29T10:03:04.246Z,43.80
2018-06-29T10:05:34.791Z,43.80
2018-06-29T10:08:04.971Z,43.00
2018-06-29T10:10:35.140Z,44.50
2018-06-29T10:13:05.117Z,46.00
2018-06-29T10:15:35.443Z,43.90
2018-06-29T10:18:05.546Z,43.40
2018-06-29T10:20:35.742Z,43.10
2018-06-29T10:23:06.338Z,43.40
2018-06-29T10:25:36.713Z,43.20
2018-06-29T10:28:07.390Z,41.50
2018-06-29T10:30:37.559Z,42.50
2018-06-29T10:33:07.683Z,42.70
2018-06-29T10:35:38.062Z,42.00
2018-06-29T10:38:08.341Z,42.50
2018-06-29T10:40:38.523Z,41.80
2018-06-29T10:43:08.594Z,41.70
2018-06-29T10:45:38.721Z,40.40
2018-06-29T10:48:08.852Z,41.30
2018-06-29T10:50:39.171Z,41.30
2018-06-29T10:53:10.408Z,41.20
2018-06-29T11:00:31.161Z,40.40
2018-06-29T11:03:01.349Z,41.20
2018-06-29T11:05:31.620Z,40.30
2018-06-29T11:08:01.778Z,40.60
2018-06-29T11:10:32.041Z,40.20
2018-06-29T11:13:02.302Z,39.60
2018-06-29T11:15:32.618Z,39.20
2018-06-29T11:18:02.789Z,39.50
2018-06-29T11:20:33.072Z,40.00
2018-06-29T11:23:03.223Z,39.60
2018-06-29T11:25:33.371Z,40.00
2018-06-29T11:28:03.564Z,37.90
2018-06-29T11:30:33.649Z,36.30
2018-06-29T11:33:03.669Z,38.80
2018-06-29T11:35:34.102Z,38.70
2018-06-29T11:38:04.397Z,39.20
2018-06-29T11:40:34.557Z,37.60
2018-06-29T11:43:04.639Z,38.10
2018-06-29T11:45:34.688Z,37.30
2018-06-29T11:48:05.242Z,37.50
2018-06-29T11:50:35.988Z,38.80
2018-06-29T11:53:07.230Z,38.10
2018-06-29T11:55:38.378Z,38.40
2018-06-29T11:58:09.395Z,37.50
2018-06-29T12:00:40.879Z,36.60
2018-06-29T12:03:11.868Z,36.40
2018-06-29T12:08:12.284Z,38.00
2018-06-29T12:13:11.987Z,35.30
2018-06-29T12:15:42.178Z,35.20
2018-06-29T12:18:12.421Z,36.60
2018-06-29T12:20:42.581Z,35.40
2018-06-29T12:23:12.634Z,35.70
2018-06-29T12:25:43.049Z,34.90
2018-06-29T12:28:13.053Z,35.00
2018-06-29T12:30:43.357Z,35.90
2018-06-29T12:33:13.361Z,35.10
2018-06-29T12:35:43.590Z,34.20
2018-06-29T12:38:13.772Z,35.50
2018-06-29T12:40:44.163Z,35.30
2018-06-29T12:43:14.694Z,33.80
2018-06-29T12:45:44.720Z,33.80
2018-06-29T12:48:14.962Z,34.20
2018-06-29T12:50:45.253Z,34.30
2018-06-29T12:53:15.292Z,33.00
2018-06-29T12:55:45.510Z,33.30
2018-06-29T12:58:15.549Z,34.00
2018-06-29T13:00:45.393Z,32.80
2018-06-29T13:03:15.729Z,33.40
2018-06-29T13:05:46.044Z,33.70
2018-06-29T13:08:16.317Z,35.10
2018-06-29T13:10:46.497Z,33.80
2018-06-29T13:13:16.573Z,33.90
2018-06-29T13:15:47.148Z,33.50
2018-06-29T13:18:18.293Z,32.90
2018-06-29T13:30:32.404Z,33.50
2018-06-29T13:33:02.758Z,33.80
2018-06-29T13:35:33.692Z,33.90
2018-06-29T13:38:03.884Z,34.20
2018-06-29T13:40:34.072Z,34.60
2018-06-29T13:43:04.644Z,33.60
2018-06-29T13:45:35.318Z,33.20
2018-06-29T13:48:05.655Z,34.10
2018-06-29T13:50:36.277Z,33.50
2018-06-29T13:53:06.904Z,33.50
2018-06-29T13:55:37.203Z,33.60
2018-06-29T13:58:07.421Z,33.50
2018-06-29T14:00:37.618Z,33.70
2018-06-29T14:03:07.941Z,33.30
2018-06-29T14:05:38.284Z,35.00
2018-06-29T14:08:08.192Z,33.30
2018-06-29T14:10:38.379Z,33.30
2018-06-29T14:13:08.596Z,34.10
2018-06-29T14:15:38.789Z,34.20
2018-06-29T14:18:08.852Z,34.30
2018-06-29T14:20:39.956Z,32.90
2018-06-29T14:23:11.105Z,33.80
2018-06-29T14:25:42.346Z,33.30
2018-06-29T14:28:13.416Z,33.60
2018-06-29T14:30:44.455Z,33.20
2018-06-29T14:33:15.697Z,32.60
2018-06-29T14:35:46.703Z,33.00
2018-06-29T14:38:17.647Z,31.30
2018-06-29T14:40:49.208Z,32.30
2018-06-29T14:43:19.874Z,31.70
2018-06-29T14:48:20.386Z,31.60
2018-06-29T14:50:50.994Z,31.80
2018-06-29T14:53:21.314Z,31.20
2018-06-29T14:55:51.779Z,30.60
2018-06-29T14:58:22.657Z,31.20
2018-06-29T15:00:52.912Z,30.10
2018-06-29T15:03:23.667Z,30.50
2018-06-29T15:05:54.331Z,30.30
2018-06-29T15:08:24.376Z,31.50
2018-06-29T15:10:54.641Z,30.20
2018-06-29T15:13:25.033Z,30.10
2018-06-29T15:15:55.051Z,30.40
2018-06-29T15:18:25.423Z,31.50
2018-06-29T15:20:55.598Z,31.30
2018-06-29T15:23:25.785Z,31.50
2018-06-29T15:25:55.998Z,31.30
2018-06-29T15:28:26.345Z,31.80
2018-06-29T15:30:57.048Z,31.80
2018-06-29T15:33:27.542Z,32.20
2018-06-29T15:35:57.792Z,30.50
2018-06-29T15:38:27.838Z,29.80
2018-06-29T15:40:58.019Z,31.20
2018-06-29T15:43:28.124Z,30.90
2018-06-29T15:45:58.327Z,31.00
2018-06-29T15:48:28.541Z,30.10
2018-06-29T15:50:58.898Z,30.00
2018-06-29T15:53:30.587Z,30.90
2018-06-29T15:56:01.850Z,28.60
2018-06-29T15:58:32.082Z,29.90
2018-06-29T16:01:02.285Z,30.00
2018-06-29T16:03:32.692Z,28.80
2018-06-29T16:08:34.894Z,29.60
2018-06-29T16:11:06.054Z,28.10
2018-06-29T16:13:37.168Z,28.70
2018-06-29T16:16:07.639Z,28.40
2018-06-29T16:21:09.648Z,28.50
2018-06-29T16:23:40.102Z,28.50
2018-06-29T16:26:10.655Z,27.40
2018-06-29T16:28:41.548Z,27.10
2018-06-29T16:31:11.688Z,26.00
2018-06-29T16:33:41.960Z,25.40
2018-06-29T16:38:42.270Z,25.20
2018-06-29T16:41:12.512Z,25.50
2018-06-29T16:46:12.660Z,25.10
2018-06-29T16:48:42.960Z,25.00
2018-06-29T16:51:13.213Z,25.40
2018-06-29T16:53:43.333Z,24.80
2018-06-29T16:56:13.545Z,25.20
2018-06-29T16:58:43.837Z,25.20
2018-06-29T17:01:14.065Z,24.70
2018-06-29T17:03:44.572Z,26.00
2018-06-29T17:06:14.840Z,25.10
2018-06-29T17:08:45.391Z,24.80
2018-06-29T17:11:15.633Z,24.90
2018-06-29T17:13:46.423Z,25.10
2018-06-29T17:16:16.957Z,25.20
2018-06-29T17:18:47.411Z,24.70
2018-06-29T17:21:17.633Z,24.70
2018-06-29T17:23:47.804Z,24.80
2018-06-29T17:26:18.067Z,25.00
2018-06-29T17:28:48.351Z,25.70
2018-06-29T17:31:18.428Z,25.70
2018-06-29T17:33:49.692Z,25.60
2018-06-29T17:36:19.668Z,25.90
2018-06-29T17:38:49.846Z,25.80
2018-06-29T17:41:20.183Z,25.70
2018-06-29T17:43:50.423Z,25.60
2018-06-29T17:46:20.358Z,25.80
2018-06-29T17:48:50.502Z,26.30
2018-06-29T18:00:30.891Z,25.70
2018-06-29T18:03:01.194Z,25.90
2018-06-29T18:05:32.165Z,27.00
2018-06-29T18:08:02.768Z,27.40
2018-06-29T18:10:32.879Z,27.40
2018-06-29T18:13:03.055Z,27.50
2018-06-29T18:20:31.325Z,28.20
2018-06-29T18:23:01.741Z,28.50
2018-06-29T18:25:31.952Z,29.20
2018-06-29T18:28:02.156Z,29.50
2018-06-29T18:30:32.310Z,29.60
2018-06-29T18:33:02.604Z,29.80
2018-06-29T18:35:33.070Z,30.10
2018-06-29T18:38:03.799Z,30.70
2018-06-29T18:40:34.377Z,31.00
2018-06-29T18:43:05.274Z,31.20
2018-06-29T18:45:36.226Z,32.00
2018-06-29T18:48:06.813Z,33.40
2018-06-29T18:50:37.499Z,34.10
2018-06-29T18:53:08.034Z,34.90
2018-06-29T18:55:38.414Z,35.80
2018-06-29T18:58:08.784Z,36.80
2018-06-29T19:00:38.981Z,38.50
2018-06-29T19:03:09.468Z,38.60
2018-06-29T19:05:39.873Z,39.40
2018-06-29T19:08:10.193Z,39.70
2018-06-29T19:10:40.529Z,40.60
2018-06-29T19:13:10.727Z,40.50
2018-06-29T19:15:41.040Z,41.10
2018-06-29T19:18:11.767Z,41.50
2018-06-29T19:20:42.193Z,42.20
2018-06-29T19:23:12.313Z,42.50
2018-06-29T19:25:42.533Z,42.90
2018-06-29T19:28:12.673Z,43.40
2018-06-29T19:30:42.779Z,43.90
2018-06-29T19:33:13.877Z,44.30
2018-06-29T19:38:15.192Z,45.10
2018-06-29T19:40:45.799Z,45.40
2018-06-29T19:43:16.161Z,46.00
2018-06-29T19:45:47.047Z,46.20
2018-06-29T19:48:17.327Z,46.50
2018-06-29T19:50:48.233Z,46.70
2018-06-29T19:53:18.687Z,47.10
2018-06-29T19:55:49.071Z,47.60
2018-06-29T19:58:19.408Z,47.70
2018-06-29T20:00:50.129Z,48.20
2018-06-29T20:03:20.662Z,48.20
2018-06-29T20:05:51.114Z,48.40
2018-06-29T20:08:21.414Z,48.90
2018-06-29T20:10:51.831Z,49.40
2018-06-29T20:13:22.040Z,49.50
2018-06-29T20:15:52.264Z,49.30
2018-06-29T20:18:22.549Z,49.50
2018-06-29T20:20:52.765Z,49.80
2018-06-29T20:23:22.838Z,49.90
2018-06-29T20:25:52.983Z,49.90
2018-06-29T20:28:23.201Z,50.10
2018-06-29T20:30:54.045Z,50.20
2018-06-29T20:33:24.558Z,50.70
2018-06-29T20:35:55.055Z,51.10
2018-06-29T20:38:25.469Z,51.60
2018-06-29T20:40:55.895Z,52.00
2018-06-29T20:43:26.270Z,52.40
2018-06-29T20:45:56.513Z,52.40
2018-06-29T20:48:26.617Z,52.60
2018-06-29T20:50:56.881Z,52.80
2018-06-29T20:53:27.172Z,53.00
2018-06-29T20:55:57.383Z,53.10
2018-06-29T20:58:27.763Z,53.70
2018-06-29T21:00:57.919Z,53.00
2018-06-29T21:03:28.284Z,53.70
2018-06-29T21:05:58.727Z,54.00
2018-06-29T21:08:28.887Z,54.00
2018-06-29T21:10:59.356Z,54.20
2018-06-29T21:13:29.600Z,54.40
2018-06-29T21:15:59.840Z,54.50
2018-06-29T21:18:30.239Z,54.50
2018-06-29T21:21:00.366Z,54.50
2018-06-29T21:23:30.959Z,54.60
2018-06-29T21:26:01.464Z,55.00
2018-06-29T21:28:31.812Z,55.00
2018-06-29T21:31:01.918Z,55.60
2018-06-29T21:33:32.246Z,55.50
2018-06-29T21:36:02.803Z,56.80
2018-06-29T21:38:33.354Z,56.30
2018-06-29T21:41:03.710Z,56.30
2018-06-29T21:43:33.903Z,56.50
2018-06-29T21:46:04.185Z,56.40
2018-06-29T21:48:34.317Z,56.70
2018-06-29T21:51:04.400Z,56.70
2018-06-29T21:53:34.783Z,56.60
2018-06-29T21:56:05.250Z,56.60
2018-06-29T21:58:35.603Z,56.30
2018-06-29T22:01:05.864Z,56.60
2018-06-29T22:03:36.303Z,56.60
2018-06-29T22:06:06.750Z,56.20
2018-06-29T22:08:37.251Z,56.60
2018-06-29T22:11:07.913Z,56.40
2018-06-29T22:13:38.186Z,56.40
2018-06-29T22:16:08.294Z,55.90
2018-06-29T22:18:38.601Z,55.80
2018-06-29T22:21:08.816Z,56.00
2018-06-29T22:23:39.534Z,55.80
2018-06-29T22:26:09.930Z,55.60
2018-06-29T22:31:10.069Z,55.60
2018-06-29T22:33:40.583Z,55.50
2018-06-29T22:36:10.834Z,55.50
2018-06-29T22:41:12.659Z,55.30
2018-06-29T22:43:42.884Z,55.20
2018-06-29T22:46:13.418Z,55.30
2018-06-29T22:48:44.017Z,55.10
2018-06-29T22:51:13.988Z,55.20
2018-06-29T22:53:44.124Z,55.00
2018-06-29T22:56:14.376Z,55.10
2018-06-29T22:58:44.493Z,55.20
2018-06-29T23:01:14.865Z,55.20
2018-06-29T23:03:50.059Z,55.20
2018-06-29T23:06:20.203Z,54.90
2018-06-29T23:08:50.380Z,54.70
2018-06-29T23:11:20.586Z,54.70
2018-06-29T23:13:50.652Z,54.90
2018-06-29T23:16:20.781Z,55.10
2018-06-29T23:18:50.875Z,55.20
2018-06-29T23:21:20.891Z,55.40
2018-06-29T23:23:51.309Z,55.40
2018-06-29T23:26:21.501Z,55.60
2018-06-29T23:28:51.839Z,56.00
2018-06-29T23:31:21.977Z,55.80
2018-06-29T23:33:52.126Z,56.10
2018-06-29T23:36:22.306Z,56.10
2018-06-29T23:38:52.588Z,56.80
2018-06-29T23:41:22.720Z,56.40
2018-06-29T23:43:52.915Z,56.80
2018-06-29T23:46:22.729Z,56.70
2018-06-29T23:48:52.729Z,57.10
2018-06-29T23:51:22.626Z,57.40
2018-06-29T23:53:52.595Z,57.50
2018-06-29T23:56:22.449Z,57.60
2018-06-29T23:58:52.722Z,57.70
